sensor_id;sensor_type;location;lat;lon;timestamp;P1;durP1;ratioP1;P2;durP2;ratioP2
7661;SDS011;30314;48.184;11.510;2023-04-06T00:02:09;13.60;;;6.00;;
7661;SDS011;30314;48.184;11.510;2023-04-06T00:04:35;11.60;;;5.60;;
7661;SDS011;30314;48.184;11.510;2023-04-06T00:07:02;13.13;;;6.33;;
7661;SDS011;30314;48.184;11.510;2023-04-06T00:09:28;12.53;;;5.83;;
7661;SDS011;30314;48.184;11.510;2023-04-06T00:11:55;13.63;;;6.37;;
7661;SDS011;30314;48.184;11.510;2023-04-06T00:14:22;10.73;;;6.03;;
7661;SDS011;30314;48.184;11.510;2023-04-06T00:16:49;14.07;;;6.60;;
7661;SDS011;30314;48.184;11.510;2023-04-06T00:19:16;19.23;;;7.20;;
7661;SDS011;30314;48.184;11.510;2023-04-06T00:21:43;13.13;;;6.77;;
7661;SDS011;30314;48.184;11.510;2023-04-06T00:24:09;9.80;;;6.33;;
7661;SDS011;30314;48.184;11.510;2023-04-06T00:26:36;11.37;;;6.37;;
7661;SDS011;30314;48.184;11.510;2023-04-06T00:29:03;13.50;;;6.90;;
7661;SDS011;30314;48.184;11.510;2023-04-06T00:31:30;15.70;;;8.03;;
7661;SDS011;30314;48.184;11.510;2023-04-06T00:33:57;9.97;;;7.23;;
7661;SDS011;30314;48.184;11.510;2023-04-06T00:36:24;15.73;;;6.27;;
7661;SDS011;30314;48.184;11.510;2023-04-06T00:38:51;16.80;;;6.53;;
7661;SDS011;30314;48.184;11.510;2023-04-06T00:41:18;12.23;;;7.30;;
7661;SDS011;30314;48.184;11.510;2023-04-06T00:43:46;14.27;;;6.40;;
7661;SDS011;30314;48.184;11.510;2023-04-06T00:46:13;11.00;;;6.60;;
7661;SDS011;30314;48.184;11.510;2023-04-06T00:48:40;16.33;;;6.80;;
7661;SDS011;30314;48.184;11.510;2023-04-06T00:51:07;11.90;;;7.20;;
7661;SDS011;30314;48.184;11.510;2023-04-06T00:53:33;12.80;;;6.30;;
7661;SDS011;30314;48.184;11.510;2023-04-06T00:56:01;9.47;;;6.60;;
7661;SDS011;30314;48.184;11.510;2023-04-06T00:58:34;18.27;;;7.07;;
7661;SDS011;30314;48.184;11.510;2023-04-06T01:01:06;13.13;;;7.20;;
7661;SDS011;30314;48.184;11.510;2023-04-06T01:03:33;15.43;;;6.10;;
7661;SDS011;30314;48.184;11.510;2023-04-06T01:06:01;15.20;;;6.93;;
7661;SDS011;30314;48.184;11.510;2023-04-06T01:08:34;12.70;;;6.40;;
7661;SDS011;30314;48.184;11.510;2023-04-06T01:11:19;13.70;;;6.40;;
7661;SDS011;30314;48.184;11.510;2023-04-06T01:13:48;8.00;;;5.90;;
7661;SDS011;30314;48.184;11.510;2023-04-06T01:16:24;22.53;;;6.87;;
7661;SDS011;30314;48.184;11.510;2023-04-06T01:19:09;11.73;;;6.60;;
7661;SDS011;30314;48.184;11.510;2023-04-06T01:21:39;10.47;;;6.00;;
7661;SDS011;30314;48.184;11.510;2023-04-06T01:24:26;8.13;;;5.13;;
7661;SDS011;30314;48.184;11.510;2023-04-06T01:27:02;10.63;;;5.60;;
7661;SDS011;30314;48.184;11.510;2023-04-06T01:29:41;15.80;;;5.70;;
7661;SDS011;30314;48.184;11.510;2023-04-06T01:32:11;7.33;;;4.63;;
7661;SDS011;30314;48.184;11.510;2023-04-06T01:34:46;12.63;;;6.73;;
7661;SDS011;30314;48.184;11.510;2023-04-06T01:37:12;8.43;;;4.90;;
7661;SDS011;30314;48.184;11.510;2023-04-06T01:39:39;8.63;;;5.27;;
7661;SDS011;30314;48.184;11.510;2023-04-06T01:42:07;9.97;;;5.27;;
7661;SDS011;30314;48.184;11.510;2023-04-06T01:44:36;8.80;;;5.40;;
7661;SDS011;30314;48.184;11.510;2023-04-06T01:47:08;10.53;;;5.47;;
7661;SDS011;30314;48.184;11.510;2023-04-06T01:49:35;8.03;;;4.60;;
7661;SDS011;30314;48.184;11.510;2023-04-06T01:52:03;7.50;;;4.90;;
7661;SDS011;30314;48.184;11.510;2023-04-06T01:54:30;12.27;;;4.73;;
7661;SDS011;30314;48.184;11.510;2023-04-06T01:57:14;5.67;;;4.50;;
7661;SDS011;30314;48.184;11.510;2023-04-06T02:00:10;8.83;;;5.57;;
7661;SDS011;30314;48.184;11.510;2023-04-06T02:02:47;8.37;;;4.77;;
7661;SDS011;30314;48.184;11.510;2023-04-06T02:05:20;9.57;;;5.13;;
7661;SDS011;30314;48.184;11.510;2023-04-06T02:07:48;12.17;;;4.93;;
7661;SDS011;30314;48.184;11.510;2023-04-06T02:10:19;10.60;;;4.90;;
7661;SDS011;30314;48.184;11.510;2023-04-06T02:12:46;9.90;;;5.50;;
7661;SDS011;30314;48.184;11.510;2023-04-06T02:15:19;7.47;;;4.60;;
7661;SDS011;30314;48.184;11.510;2023-04-06T02:17:46;11.40;;;5.60;;
7661;SDS011;30314;48.184;11.510;2023-04-06T02:20:13;8.10;;;5.20;;
7661;SDS011;30314;48.184;11.510;2023-04-06T02:22:40;10.10;;;5.80;;
7661;SDS011;30314;48.184;11.510;2023-04-06T02:25:06;8.43;;;5.00;;
7661;SDS011;30314;48.184;11.510;2023-04-06T02:27:34;13.67;;;5.63;;
7661;SDS011;30314;48.184;11.510;2023-04-06T02:30:00;10.43;;;6.10;;
7661;SDS011;30314;48.184;11.510;2023-04-06T02:32:27;10.70;;;4.87;;
7661;SDS011;30314;48.184;11.510;2023-04-06T02:34:54;7.43;;;4.80;;
7661;SDS011;30314;48.184;11.510;2023-04-06T02:37:22;9.90;;;5.10;;
7661;SDS011;30314;48.184;11.510;2023-04-06T02:39:50;17.83;;;5.67;;
7661;SDS011;30314;48.184;11.510;2023-04-06T02:42:17;9.60;;;4.60;;
7661;SDS011;30314;48.184;11.510;2023-04-06T02:44:46;11.27;;;5.33;;
7661;SDS011;30314;48.184;11.510;2023-04-06T02:47:13;7.13;;;4.67;;
7661;SDS011;30314;48.184;11.510;2023-04-06T02:49:45;8.20;;;4.63;;
7661;SDS011;30314;48.184;11.510;2023-04-06T02:52:15;7.23;;;4.40;;
7661;SDS011;30314;48.184;11.510;2023-04-06T02:54:44;8.07;;;4.97;;
7661;SDS011;30314;48.184;11.510;2023-04-06T02:57:11;7.70;;;4.70;;
7661;SDS011;30314;48.184;11.510;2023-04-06T02:59:42;9.53;;;4.87;;
7661;SDS011;30314;48.184;11.510;2023-04-06T03:02:17;7.50;;;4.57;;
7661;SDS011;30314;48.184;11.510;2023-04-06T03:04:44;8.40;;;5.30;;
7661;SDS011;30314;48.184;11.510;2023-04-06T03:07:21;8.07;;;4.90;;
7661;SDS011;30314;48.184;11.510;2023-04-06T03:09:48;10.87;;;4.87;;
7661;SDS011;30314;48.184;11.510;2023-04-06T03:12:16;9.27;;;5.10;;
7661;SDS011;30314;48.184;11.510;2023-04-06T03:15:03;10.30;;;5.10;;
7661;SDS011;30314;48.184;11.510;2023-04-06T03:17:30;11.13;;;4.90;;
7661;SDS011;30314;48.184;11.510;2023-04-06T03:20:00;12.00;;;5.93;;
7661;SDS011;30314;48.184;11.510;2023-04-06T03:22:29;6.37;;;4.33;;
7661;SDS011;30314;48.184;11.510;2023-04-06T03:24:56;9.10;;;4.87;;
7661;SDS011;30314;48.184;11.510;2023-04-06T03:27:24;8.47;;;5.53;;
7661;SDS011;30314;48.184;11.510;2023-04-06T03:29:53;7.83;;;4.97;;
7661;SDS011;30314;48.184;11.510;2023-04-06T03:32:28;10.93;;;4.53;;
7661;SDS011;30314;48.184;11.510;2023-04-06T03:34:54;7.27;;;4.57;;
7661;SDS011;30314;48.184;11.510;2023-04-06T03:37:21;8.00;;;4.90;;
7661;SDS011;30314;48.184;11.510;2023-04-06T03:39:52;10.07;;;5.93;;
7661;SDS011;30314;48.184;11.510;2023-04-06T03:42:22;10.43;;;4.90;;
7661;SDS011;30314;48.184;11.510;2023-04-06T03:44:52;8.53;;;5.37;;
7661;SDS011;30314;48.184;11.510;2023-04-06T03:47:19;7.67;;;5.23;;
7661;SDS011;30314;48.184;11.510;2023-04-06T03:49:46;11.30;;;5.37;;
7661;SDS011;30314;48.184;11.510;2023-04-06T03:52:14;7.53;;;5.17;;
7661;SDS011;30314;48.184;11.510;2023-04-06T03:54:41;13.23;;;5.97;;
7661;SDS011;30314;48.184;11.510;2023-04-06T03:57:09;11.03;;;8.43;;
7661;SDS011;30314;48.184;11.510;2023-04-06T03:59:36;9.37;;;6.13;;
7661;SDS011;30314;48.184;11.510;2023-04-06T04:02:02;13.80;;;6.33;;
7661;SDS011;30314;48.184;11.510;2023-04-06T04:04:29;9.93;;;5.50;;
7661;SDS011;30314;48.184;11.510;2023-04-06T04:06:57;13.70;;;6.20;;
7661;SDS011;30314;48.184;11.510;2023-04-06T04:09:23;13.90;;;6.63;;
7661;SDS011;30314;48.184;11.510;2023-04-06T04:11:49;17.50;;;6.10;;
7661;SDS011;30314;48.184;11.510;2023-04-06T04:14:16;14.90;;;5.83;;
7661;SDS011;30314;48.184;11.510;2023-04-06T04:16:44;8.17;;;5.43;;
7661;SDS011;30314;48.184;11.510;2023-04-06T04:19:10;11.23;;;6.00;;
7661;SDS011;30314;48.184;11.510;2023-04-06T04:21:45;11.83;;;6.27;;
7661;SDS011;30314;48.184;11.510;2023-04-06T04:24:17;9.27;;;5.47;;
7661;SDS011;30314;48.184;11.510;2023-04-06T04:26:43;10.07;;;6.00;;
7661;SDS011;30314;48.184;11.510;2023-04-06T04:29:10;11.70;;;6.00;;
7661;SDS011;30314;48.184;11.510;2023-04-06T04:31:37;10.77;;;5.77;;
7661;SDS011;30314;48.184;11.510;2023-04-06T04:34:11;12.80;;;5.93;;
7661;SDS011;30314;48.184;11.510;2023-04-06T04:36:37;10.00;;;5.73;;
7661;SDS011;30314;48.184;11.510;2023-04-06T04:39:08;12.57;;;5.40;;
7661;SDS011;30314;48.184;11.510;2023-04-06T04:41:39;10.73;;;5.53;;
7661;SDS011;30314;48.184;11.510;2023-04-06T04:44:08;12.07;;;6.10;;
7661;SDS011;30314;48.184;11.510;2023-04-06T04:46:35;11.53;;;5.10;;
7661;SDS011;30314;48.184;11.510;2023-04-06T04:49:01;14.33;;;6.50;;
7661;SDS011;30314;48.184;11.510;2023-04-06T04:51:30;12.47;;;6.23;;
7661;SDS011;30314;48.184;11.510;2023-04-06T04:54:06;13.57;;;6.20;;
7661;SDS011;30314;48.184;11.510;2023-04-06T04:56:33;14.60;;;6.43;;
7661;SDS011;30314;48.184;11.510;2023-04-06T04:59:16;11.30;;;5.77;;
7661;SDS011;30314;48.184;11.510;2023-04-06T05:01:50;12.23;;;5.93;;
7661;SDS011;30314;48.184;11.510;2023-04-06T05:04:25;17.20;;;6.67;;
7661;SDS011;30314;48.184;11.510;2023-04-06T05:07:08;11.53;;;6.10;;
7661;SDS011;30314;48.184;11.510;2023-04-06T05:09:38;11.00;;;5.87;;
7661;SDS011;30314;48.184;11.510;2023-04-06T05:12:06;10.40;;;6.23;;
7661;SDS011;30314;48.184;11.510;2023-04-06T05:14:40;12.20;;;7.00;;
7661;SDS011;30314;48.184;11.510;2023-04-06T05:17:12;10.97;;;5.73;;
7661;SDS011;30314;48.184;11.510;2023-04-06T05:19:39;16.30;;;7.33;;
7661;SDS011;30314;48.184;11.510;2023-04-06T05:22:06;10.50;;;6.50;;
7661;SDS011;30314;48.184;11.510;2023-04-06T05:24:35;16.57;;;6.80;;
7661;SDS011;30314;48.184;11.510;2023-04-06T05:27:05;12.63;;;5.70;;
7661;SDS011;30314;48.184;11.510;2023-04-06T05:29:31;12.13;;;6.53;;
7661;SDS011;30314;48.184;11.510;2023-04-06T05:31:58;12.50;;;6.27;;
7661;SDS011;30314;48.184;11.510;2023-04-06T05:34:25;13.93;;;6.03;;
7661;SDS011;30314;48.184;11.510;2023-04-06T05:36:53;15.23;;;6.23;;
7661;SDS011;30314;48.184;11.510;2023-04-06T05:39:22;14.57;;;6.47;;
7661;SDS011;30314;48.184;11.510;2023-04-06T05:41:52;11.70;;;6.97;;
7661;SDS011;30314;48.184;11.510;2023-04-06T05:44:30;11.47;;;6.40;;
7661;SDS011;30314;48.184;11.510;2023-04-06T05:47:05;15.20;;;7.77;;
7661;SDS011;30314;48.184;11.510;2023-04-06T05:49:32;11.13;;;7.37;;
7661;SDS011;30314;48.184;11.510;2023-04-06T05:51:59;13.97;;;7.13;;
7661;SDS011;30314;48.184;11.510;2023-04-06T05:54:26;8.10;;;6.33;;
7661;SDS011;30314;48.184;11.510;2023-04-06T05:56:58;8.57;;;5.53;;
7661;SDS011;30314;48.184;11.510;2023-04-06T05:59:25;11.67;;;6.70;;
7661;SDS011;30314;48.184;11.510;2023-04-06T06:01:52;10.90;;;6.40;;
7661;SDS011;30314;48.184;11.510;2023-04-06T06:04:19;14.20;;;7.30;;
7661;SDS011;30314;48.184;11.510;2023-04-06T06:06:49;11.47;;;6.43;;
7661;SDS011;30314;48.184;11.510;2023-04-06T06:09:25;12.53;;;6.93;;
7661;SDS011;30314;48.184;11.510;2023-04-06T06:12:15;11.43;;;6.80;;
7661;SDS011;30314;48.184;11.510;2023-04-06T06:14:41;8.70;;;6.23;;
7661;SDS011;30314;48.184;11.510;2023-04-06T06:17:08;14.37;;;7.50;;
7661;SDS011;30314;48.184;11.510;2023-04-06T06:19:35;20.37;;;8.37;;
7661;SDS011;30314;48.184;11.510;2023-04-06T06:22:05;12.20;;;7.20;;
7661;SDS011;30314;48.184;11.510;2023-04-06T06:24:35;14.80;;;8.60;;
7661;SDS011;30314;48.184;11.510;2023-04-06T06:27:02;17.20;;;8.43;;
7661;SDS011;30314;48.184;11.510;2023-04-06T06:29:31;15.20;;;8.13;;
7661;SDS011;30314;48.184;11.510;2023-04-06T06:31:58;18.60;;;9.73;;
7661;SDS011;30314;48.184;11.510;2023-04-06T06:34:25;15.97;;;8.30;;
7661;SDS011;30314;48.184;11.510;2023-04-06T06:36:55;14.07;;;7.60;;
7661;SDS011;30314;48.184;11.510;2023-04-06T06:39:22;13.37;;;7.00;;
7661;SDS011;30314;48.184;11.510;2023-04-06T06:41:49;9.07;;;5.80;;
7661;SDS011;30314;48.184;11.510;2023-04-06T06:44:20;9.23;;;6.63;;
7661;SDS011;30314;48.184;11.510;2023-04-06T06:46:47;11.53;;;7.30;;
7661;SDS011;30314;48.184;11.510;2023-04-06T06:49:14;14.37;;;6.67;;
7661;SDS011;30314;48.184;11.510;2023-04-06T06:51:41;11.07;;;6.70;;
7661;SDS011;30314;48.184;11.510;2023-04-06T06:54:07;11.23;;;6.97;;
7661;SDS011;30314;48.184;11.510;2023-04-06T06:56:35;15.90;;;6.70;;
7661;SDS011;30314;48.184;11.510;2023-04-06T06:59:04;9.73;;;6.17;;
7661;SDS011;30314;48.184;11.510;2023-04-06T07:01:32;13.23;;;8.20;;
7661;SDS011;30314;48.184;11.510;2023-04-06T07:04:00;12.53;;;7.47;;
7661;SDS011;30314;48.184;11.510;2023-04-06T07:06:27;10.60;;;5.90;;
7661;SDS011;30314;48.184;11.510;2023-04-06T07:08:53;15.10;;;7.00;;
7661;SDS011;30314;48.184;11.510;2023-04-06T07:11:20;12.40;;;6.73;;
7661;SDS011;30314;48.184;11.510;2023-04-06T07:13:47;16.93;;;6.23;;
7661;SDS011;30314;48.184;11.510;2023-04-06T07:16:13;11.77;;;7.63;;
7661;SDS011;30314;48.184;11.510;2023-04-06T07:18:40;12.07;;;7.50;;
7661;SDS011;30314;48.184;11.510;2023-04-06T07:21:07;11.00;;;6.03;;
7661;SDS011;30314;48.184;11.510;2023-04-06T07:23:34;30.20;;;6.80;;
7661;SDS011;30314;48.184;11.510;2023-04-06T07:26:00;9.20;;;5.93;;
7661;SDS011;30314;48.184;11.510;2023-04-06T07:28:27;10.20;;;5.50;;
7661;SDS011;30314;48.184;11.510;2023-04-06T07:30:54;10.00;;;5.57;;
7661;SDS011;30314;48.184;11.510;2023-04-06T07:33:21;8.93;;;5.70;;
7661;SDS011;30314;48.184;11.510;2023-04-06T07:35:47;13.73;;;6.10;;
7661;SDS011;30314;48.184;11.510;2023-04-06T07:38:14;11.00;;;5.70;;
7661;SDS011;30314;48.184;11.510;2023-04-06T07:40:42;8.50;;;5.20;;
7661;SDS011;30314;48.184;11.510;2023-04-06T07:43:08;9.13;;;5.67;;
7661;SDS011;30314;48.184;11.510;2023-04-06T07:45:35;10.10;;;6.17;;
7661;SDS011;30314;48.184;11.510;2023-04-06T07:48:01;11.40;;;5.50;;
7661;SDS011;30314;48.184;11.510;2023-04-06T07:50:29;9.00;;;6.53;;
7661;SDS011;30314;48.184;11.510;2023-04-06T07:52:56;11.40;;;6.63;;
7661;SDS011;30314;48.184;11.510;2023-04-06T07:55:24;12.23;;;6.30;;
7661;SDS011;30314;48.184;11.510;2023-04-06T07:57:50;8.40;;;5.93;;
7661;SDS011;30314;48.184;11.510;2023-04-06T08:00:17;10.60;;;6.53;;
7661;SDS011;30314;48.184;11.510;2023-04-06T08:02:44;9.10;;;5.83;;
7661;SDS011;30314;48.184;11.510;2023-04-06T08:05:11;7.37;;;5.10;;
7661;SDS011;30314;48.184;11.510;2023-04-06T08:07:37;17.00;;;6.27;;
7661;SDS011;30314;48.184;11.510;2023-04-06T08:10:04;11.20;;;5.90;;
7661;SDS011;30314;48.184;11.510;2023-04-06T08:12:32;8.57;;;5.80;;
7661;SDS011;30314;48.184;11.510;2023-04-06T08:14:59;9.00;;;5.70;;
7661;SDS011;30314;48.184;11.510;2023-04-06T08:17:26;10.10;;;6.20;;
7661;SDS011;30314;48.184;11.510;2023-04-06T08:19:56;9.57;;;5.77;;
7661;SDS011;30314;48.184;11.510;2023-04-06T08:22:23;12.93;;;6.47;;
7661;SDS011;30314;48.184;11.510;2023-04-06T08:24:50;9.30;;;6.30;;
7661;SDS011;30314;48.184;11.510;2023-04-06T08:27:17;13.20;;;6.40;;
7661;SDS011;30314;48.184;11.510;2023-04-06T08:29:43;8.80;;;5.80;;
7661;SDS011;30314;48.184;11.510;2023-04-06T08:32:10;9.30;;;6.10;;
7661;SDS011;30314;48.184;11.510;2023-04-06T08:34:37;9.87;;;6.23;;
7661;SDS011;30314;48.184;11.510;2023-04-06T08:37:03;18.83;;;5.60;;
7661;SDS011;30314;48.184;11.510;2023-04-06T08:39:30;11.77;;;6.60;;
7661;SDS011;30314;48.184;11.510;2023-04-06T08:42:00;8.17;;;5.47;;
7661;SDS011;30314;48.184;11.510;2023-04-06T08:44:29;7.83;;;5.33;;
7661;SDS011;30314;48.184;11.510;2023-04-06T08:46:58;9.40;;;6.37;;
7661;SDS011;30314;48.184;11.510;2023-04-06T08:49:26;11.53;;;6.30;;
7661;SDS011;30314;48.184;11.510;2023-04-06T08:51:54;12.70;;;5.60;;
7661;SDS011;30314;48.184;11.510;2023-04-06T08:54:21;9.30;;;6.47;;
7661;SDS011;30314;48.184;11.510;2023-04-06T08:56:48;9.77;;;5.90;;
7661;SDS011;30314;48.184;11.510;2023-04-06T08:59:15;13.30;;;6.50;;
7661;SDS011;30314;48.184;11.510;2023-04-06T09:01:42;11.53;;;7.67;;
7661;SDS011;30314;48.184;11.510;2023-04-06T09:04:12;8.90;;;5.27;;
7661;SDS011;30314;48.184;11.510;2023-04-06T09:06:39;8.03;;;5.47;;
7661;SDS011;30314;48.184;11.510;2023-04-06T09:09:07;11.20;;;6.00;;
7661;SDS011;30314;48.184;11.510;2023-04-06T09:14:10;8.43;;;5.43;;
7661;SDS011;30314;48.184;11.510;2023-04-06T09:16:40;7.50;;;5.33;;
7661;SDS011;30314;48.184;11.510;2023-04-06T09:19:08;8.90;;;6.03;;
7661;SDS011;30314;48.184;11.510;2023-04-06T09:21:35;11.50;;;6.33;;
7661;SDS011;30314;48.184;11.510;2023-04-06T09:24:03;8.17;;;5.60;;
7661;SDS011;30314;48.184;11.510;2023-04-06T09:26:30;13.70;;;6.50;;
7661;SDS011;30314;48.184;11.510;2023-04-06T09:28:59;10.10;;;5.93;;
7661;SDS011;30314;48.184;11.510;2023-04-06T09:31:28;9.40;;;6.03;;
7661;SDS011;30314;48.184;11.510;2023-04-06T09:33:56;8.50;;;6.40;;
7661;SDS011;30314;48.184;11.510;2023-04-06T09:36:30;10.90;;;6.73;;
7661;SDS011;30314;48.184;11.510;2023-04-06T09:39:02;8.83;;;6.43;;
7661;SDS011;30314;48.184;11.510;2023-04-06T09:41:30;9.83;;;6.70;;
7661;SDS011;30314;48.184;11.510;2023-04-06T09:44:08;10.00;;;6.10;;
7661;SDS011;30314;48.184;11.510;2023-04-06T09:46:37;10.47;;;7.10;;
7661;SDS011;30314;48.184;11.510;2023-04-06T09:49:23;8.60;;;5.87;;
7661;SDS011;30314;48.184;11.510;2023-04-06T09:51:54;14.03;;;6.87;;
7661;SDS011;30314;48.184;11.510;2023-04-06T09:54:24;11.93;;;5.73;;
7661;SDS011;30314;48.184;11.510;2023-04-06T10:02:27;13.30;;;6.43;;
7661;SDS011;30314;48.184;11.510;2023-04-06T10:05:12;12.93;;;7.43;;
7661;SDS011;30314;48.184;11.510;2023-04-06T10:07:45;11.67;;;7.10;;
7661;SDS011;30314;48.184;11.510;2023-04-06T10:10:26;13.60;;;6.87;;
7661;SDS011;30314;48.184;11.510;2023-04-06T10:12:56;12.00;;;7.30;;
7661;SDS011;30314;48.184;11.510;2023-04-06T10:15:24;10.17;;;6.60;;
7661;SDS011;30314;48.184;11.510;2023-04-06T10:17:51;15.87;;;7.47;;
7661;SDS011;30314;48.184;11.510;2023-04-06T10:20:22;10.63;;;6.80;;
7661;SDS011;30314;48.184;11.510;2023-04-06T10:23:10;18.67;;;7.07;;
7661;SDS011;30314;48.184;11.510;2023-04-06T10:25:58;14.37;;;6.80;;
7661;SDS011;30314;48.184;11.510;2023-04-06T10:28:30;13.40;;;7.20;;
7661;SDS011;30314;48.184;11.510;2023-04-06T10:31:03;10.13;;;6.10;;
7661;SDS011;30314;48.184;11.510;2023-04-06T10:33:32;11.40;;;7.07;;
7661;SDS011;30314;48.184;11.510;2023-04-06T10:36:09;8.37;;;6.10;;
7661;SDS011;30314;48.184;11.510;2023-04-06T10:38:39;11.43;;;7.00;;
7661;SDS011;30314;48.184;11.510;2023-04-06T10:41:08;13.20;;;6.73;;
7661;SDS011;30314;48.184;11.510;2023-04-06T10:43:37;13.13;;;6.67;;
7661;SDS011;30314;48.184;11.510;2023-04-06T10:46:05;8.80;;;6.67;;
7661;SDS011;30314;48.184;11.510;2023-04-06T10:48:42;10.23;;;6.60;;
7661;SDS011;30314;48.184;11.510;2023-04-06T10:51:12;10.43;;;6.43;;
7661;SDS011;30314;48.184;11.510;2023-04-06T10:53:43;9.93;;;7.07;;
7661;SDS011;30314;48.184;11.510;2023-04-06T10:56:13;9.07;;;6.40;;
7661;SDS011;30314;48.184;11.510;2023-04-06T10:58:47;10.53;;;7.50;;
7661;SDS011;30314;48.184;11.510;2023-04-06T11:01:15;8.87;;;6.17;;
7661;SDS011;30314;48.184;11.510;2023-04-06T11:03:47;10.03;;;6.97;;
7661;SDS011;30314;48.184;11.510;2023-04-06T11:06:30;9.87;;;6.40;;
7661;SDS011;30314;48.184;11.510;2023-04-06T11:08:58;11.90;;;7.07;;
7661;SDS011;30314;48.184;11.510;2023-04-06T11:11:25;10.47;;;6.30;;
7661;SDS011;30314;48.184;11.510;2023-04-06T11:13:54;9.57;;;6.67;;
7661;SDS011;30314;48.184;11.510;2023-04-06T11:16:27;12.80;;;7.53;;
7661;SDS011;30314;48.184;11.510;2023-04-06T11:18:57;8.43;;;5.60;;
7661;SDS011;30314;48.184;11.510;2023-04-06T11:21:41;9.77;;;6.70;;
7661;SDS011;30314;48.184;11.510;2023-04-06T11:24:21;11.40;;;7.47;;
7661;SDS011;30314;48.184;11.510;2023-04-06T11:26:54;7.70;;;5.73;;
7661;SDS011;30314;48.184;11.510;2023-04-06T11:29:22;15.37;;;7.03;;
7661;SDS011;30314;48.184;11.510;2023-04-06T11:31:50;14.87;;;7.40;;
7661;SDS011;30314;48.184;11.510;2023-04-06T11:34:19;9.13;;;6.53;;
7661;SDS011;30314;48.184;11.510;2023-04-06T11:36:48;10.33;;;7.23;;
7661;SDS011;30314;48.184;11.510;2023-04-06T11:39:20;8.20;;;6.07;;
7661;SDS011;30314;48.184;11.510;2023-04-06T11:41:50;13.17;;;7.20;;
7661;SDS011;30314;48.184;11.510;2023-04-06T11:47:15;8.33;;;6.63;;
7661;SDS011;30314;48.184;11.510;2023-04-06T11:49:42;8.50;;;6.20;;
7661;SDS011;30314;48.184;11.510;2023-04-06T11:52:18;10.07;;;6.80;;
7661;SDS011;30314;48.184;11.510;2023-04-06T11:54:47;6.50;;;5.77;;
7661;SDS011;30314;48.184;11.510;2023-04-06T11:57:15;8.50;;;5.97;;
7661;SDS011;30314;48.184;11.510;2023-04-06T11:59:42;8.20;;;5.80;;
7661;SDS011;30314;48.184;11.510;2023-04-06T12:02:09;11.47;;;5.90;;
7661;SDS011;30314;48.184;11.510;2023-04-06T12:04:37;7.70;;;5.57;;
7661;SDS011;30314;48.184;11.510;2023-04-06T12:07:04;9.47;;;6.37;;
7661;SDS011;30314;48.184;11.510;2023-04-06T12:09:31;10.10;;;5.97;;
7661;SDS011;30314;48.184;11.510;2023-04-06T12:11:57;8.20;;;5.60;;
7661;SDS011;30314;48.184;11.510;2023-04-06T12:14:24;9.00;;;5.50;;
7661;SDS011;30314;48.184;11.510;2023-04-06T12:16:51;8.10;;;5.00;;
7661;SDS011;30314;48.184;11.510;2023-04-06T12:19:17;11.90;;;6.40;;
7661;SDS011;30314;48.184;11.510;2023-04-06T12:21:44;12.47;;;5.80;;
7661;SDS011;30314;48.184;11.510;2023-04-06T12:24:11;7.97;;;4.93;;
7661;SDS011;30314;48.184;11.510;2023-04-06T12:26:37;7.40;;;5.50;;
7661;SDS011;30314;48.184;11.510;2023-04-06T12:29:04;6.07;;;5.20;;
7661;SDS011;30314;48.184;11.510;2023-04-06T12:31:34;8.87;;;5.90;;
7661;SDS011;30314;48.184;11.510;2023-04-06T12:34:02;9.50;;;5.10;;
7661;SDS011;30314;48.184;11.510;2023-04-06T12:36:31;6.17;;;4.80;;
7661;SDS011;30314;48.184;11.510;2023-04-06T12:38:58;12.03;;;5.10;;
7661;SDS011;30314;48.184;11.510;2023-04-06T12:41:27;13.80;;;5.10;;
7661;SDS011;30314;48.184;11.510;2023-04-06T12:43:54;8.13;;;5.17;;
7661;SDS011;30314;48.184;11.510;2023-04-06T12:46:20;6.87;;;4.73;;
7661;SDS011;30314;48.184;11.510;2023-04-06T12:48:47;5.70;;;4.80;;
7661;SDS011;30314;48.184;11.510;2023-04-06T12:51:14;8.37;;;5.30;;
7661;SDS011;30314;48.184;11.510;2023-04-06T12:53:41;8.40;;;6.07;;
7661;SDS011;30314;48.184;11.510;2023-04-06T12:56:14;8.73;;;6.00;;
7661;SDS011;30314;48.184;11.510;2023-04-06T12:58:43;6.77;;;5.20;;
7661;SDS011;30314;48.184;11.510;2023-04-06T13:01:10;8.60;;;5.33;;
7661;SDS011;30314;48.184;11.510;2023-04-06T13:03:40;6.10;;;5.00;;
7661;SDS011;30314;48.184;11.510;2023-04-06T13:06:07;7.00;;;5.07;;
7661;SDS011;30314;48.184;11.510;2023-04-06T13:08:34;10.37;;;5.77;;
7661;SDS011;30314;48.184;11.510;2023-04-06T13:11:03;6.43;;;5.30;;
7661;SDS011;30314;48.184;11.510;2023-04-06T13:13:31;8.67;;;5.50;;
7661;SDS011;30314;48.184;11.510;2023-04-06T13:16:02;7.57;;;4.10;;
7661;SDS011;30314;48.184;11.510;2023-04-06T13:18:33;7.00;;;5.23;;
7661;SDS011;30314;48.184;11.510;2023-04-06T13:21:00;9.20;;;5.93;;
7661;SDS011;30314;48.184;11.510;2023-04-06T13:23:27;9.13;;;5.40;;
7661;SDS011;30314;48.184;11.510;2023-04-06T13:26:04;8.03;;;5.23;;
7661;SDS011;30314;48.184;11.510;2023-04-06T13:28:33;8.70;;;5.87;;
7661;SDS011;30314;48.184;11.510;2023-04-06T13:31:01;7.53;;;5.00;;
7661;SDS011;30314;48.184;11.510;2023-04-06T13:33:28;7.70;;;5.33;;
7661;SDS011;30314;48.184;11.510;2023-04-06T13:35:56;6.57;;;4.67;;
7661;SDS011;30314;48.184;11.510;2023-04-06T13:38:23;7.90;;;4.93;;
7661;SDS011;30314;48.184;11.510;2023-04-06T13:40:50;6.17;;;4.80;;
7661;SDS011;30314;48.184;11.510;2023-04-06T13:43:17;7.77;;;4.50;;
7661;SDS011;30314;48.184;11.510;2023-04-06T13:45:50;7.43;;;5.10;;
7661;SDS011;30314;48.184;11.510;2023-04-06T13:48:17;7.23;;;4.73;;
7661;SDS011;30314;48.184;11.510;2023-04-06T13:50:44;5.83;;;4.47;;
7661;SDS011;30314;48.184;11.510;2023-04-06T13:53:12;8.27;;;4.70;;
7661;SDS011;30314;48.184;11.510;2023-04-06T13:55:39;7.63;;;4.93;;
7661;SDS011;30314;48.184;11.510;2023-04-06T13:58:05;9.00;;;6.20;;
7661;SDS011;30314;48.184;11.510;2023-04-06T14:00:32;7.70;;;5.23;;
7661;SDS011;30314;48.184;11.510;2023-04-06T14:02:58;9.03;;;4.80;;
7661;SDS011;30314;48.184;11.510;2023-04-06T14:05:25;7.00;;;5.20;;
7661;SDS011;30314;48.184;11.510;2023-04-06T14:07:53;9.87;;;5.77;;
7661;SDS011;30314;48.184;11.510;2023-04-06T14:10:20;6.90;;;4.97;;
7661;SDS011;30314;48.184;11.510;2023-04-06T14:12:49;9.10;;;4.30;;
7661;SDS011;30314;48.184;11.510;2023-04-06T14:15:16;10.77;;;5.07;;
7661;SDS011;30314;48.184;11.510;2023-04-06T14:17:43;7.60;;;4.60;;
7661;SDS011;30314;48.184;11.510;2023-04-06T14:20:10;7.33;;;5.03;;
7661;SDS011;30314;48.184;11.510;2023-04-06T14:22:43;6.87;;;4.27;;
7661;SDS011;30314;48.184;11.510;2023-04-06T14:25:10;9.20;;;5.27;;
7661;SDS011;30314;48.184;11.510;2023-04-06T14:27:39;7.00;;;4.37;;
7661;SDS011;30314;48.184;11.510;2023-04-06T14:30:06;11.47;;;5.90;;
7661;SDS011;30314;48.184;11.510;2023-04-06T14:32:33;9.10;;;4.50;;
7661;SDS011;30314;48.184;11.510;2023-04-06T14:35:00;5.57;;;3.83;;
7661;SDS011;30314;48.184;11.510;2023-04-06T14:37:26;4.53;;;3.60;;
7661;SDS011;30314;48.184;11.510;2023-04-06T14:39:53;5.47;;;4.17;;
7661;SDS011;30314;48.184;11.510;2023-04-06T14:42:19;7.00;;;5.53;;
7661;SDS011;30314;48.184;11.510;2023-04-06T14:44:46;6.87;;;4.73;;
7661;SDS011;30314;48.184;11.510;2023-04-06T14:47:14;7.37;;;4.00;;
7661;SDS011;30314;48.184;11.510;2023-04-06T14:49:49;7.50;;;4.37;;
7661;SDS011;30314;48.184;11.510;2023-04-06T14:52:17;5.17;;;4.10;;
7661;SDS011;30314;48.184;11.510;2023-04-06T14:54:44;4.40;;;3.70;;
7661;SDS011;30314;48.184;11.510;2023-04-06T14:57:11;4.70;;;3.70;;
7661;SDS011;30314;48.184;11.510;2023-04-06T14:59:37;9.63;;;3.53;;
7661;SDS011;30314;48.184;11.510;2023-04-06T15:02:05;8.33;;;4.00;;
7661;SDS011;30314;48.184;11.510;2023-04-06T15:04:35;4.93;;;4.10;;